sensor_id;sensor_type;location;lat;lon;timestamp;P1;durP1;ratioP1;P2;durP2;ratioP2
8584;SDS011;7180;52.742;11.420;2022-08-16T05:27:39;17.87;;;16.40;;
8584;SDS011;7180;52.742;11.420;2022-08-16T05:30:05;18.20;;;16.40;;
8584;SDS011;7180;52.742;11.420;2022-08-16T05:32:32;15.90;;;14.60;;
8584;SDS011;7180;52.742;11.420;2022-08-16T05:34:58;17.43;;;15.93;;
8584;SDS011;7180;52.742;11.420;2022-08-16T05:37:24;16.25;;;14.95;;
8584;SDS011;7180;52.742;11.420;2022-08-16T05:39:50;17.65;;;16.15;;
8584;SDS011;7180;52.742;11.420;2022-08-16T05:42:15;17.80;;;16.23;;
8584;SDS011;7180;52.742;11.420;2022-08-16T05:44:41;17.98;;;16.58;;
8584;SDS011;7180;52.742;11.420;2022-08-16T05:47:06;18.13;;;16.75;;
8584;SDS011;7180;52.742;11.420;2022-08-16T05:49:31;18.15;;;16.65;;
8584;SDS011;7180;52.742;11.420;2022-08-16T05:51:57;17.60;;;16.23;;
8584;SDS011;7180;52.742;11.420;2022-08-16T05:54:24;17.45;;;16.05;;
8584;SDS011;7180;52.742;11.420;2022-08-16T05:56:50;16.67;;;15.27;;
8584;SDS011;7180;52.742;11.420;2022-08-16T05:59:16;16.55;;;15.15;;
8584;SDS011;7180;52.742;11.420;2022-08-16T06:01:42;16.85;;;15.57;;
8584;SDS011;7180;52.742;11.420;2022-08-16T06:04:14;16.20;;;15.00;;
8584;SDS011;7180;52.742;11.420;2022-08-16T06:06:40;16.17;;;14.77;;
8584;SDS011;7180;52.742;11.420;2022-08-16T06:09:07;17.60;;;16.13;;
8584;SDS011;7180;52.742;11.420;2022-08-16T06:11:32;16.83;;;15.57;;
8584;SDS011;7180;52.742;11.420;2022-08-16T06:13:57;17.05;;;15.70;;
8584;SDS011;7180;52.742;11.420;2022-08-16T06:16:23;17.05;;;15.63;;
8584;SDS011;7180;52.742;11.420;2022-08-16T06:18:48;16.73;;;15.30;;
8584;SDS011;7180;52.742;11.420;2022-08-16T06:21:13;16.73;;;15.35;;
8584;SDS011;7180;52.742;11.420;2022-08-16T06:23:39;17.95;;;16.25;;
8584;SDS011;7180;52.742;11.420;2022-08-16T06:26:05;18.63;;;16.30;;
8584;SDS011;7180;52.742;11.420;2022-08-16T06:28:31;17.30;;;15.55;;
8584;SDS011;7180;52.742;11.420;2022-08-16T06:30:57;16.67;;;15.25;;
8584;SDS011;7180;52.742;11.420;2022-08-16T06:33:22;17.77;;;16.25;;
8584;SDS011;7180;52.742;11.420;2022-08-16T06:35:49;17.55;;;16.00;;
8584;SDS011;7180;52.742;11.420;2022-08-16T06:38:15;17.02;;;15.60;;
8584;SDS011;7180;52.742;11.420;2022-08-16T06:40:40;17.77;;;16.17;;
8584;SDS011;7180;52.742;11.420;2022-08-16T06:43:05;16.25;;;15.00;;
8584;SDS011;7180;52.742;11.420;2022-08-16T06:45:31;15.38;;;14.10;;
8584;SDS011;7180;52.742;11.420;2022-08-16T06:47:56;16.88;;;15.43;;
8584;SDS011;7180;52.742;11.420;2022-08-16T06:50:22;16.23;;;14.80;;
8584;SDS011;7180;52.742;11.420;2022-08-16T06:52:48;16.02;;;14.63;;
8584;SDS011;7180;52.742;11.420;2022-08-16T06:55:13;17.23;;;15.75;;
8584;SDS011;7180;52.742;11.420;2022-08-16T06:57:40;17.15;;;15.85;;
8584;SDS011;7180;52.742;11.420;2022-08-16T07:00:06;16.58;;;15.18;;
8584;SDS011;7180;52.742;11.420;2022-08-16T07:02:38;16.27;;;14.93;;
8584;SDS011;7180;52.742;11.420;2022-08-16T07:05:05;17.25;;;15.80;;
8584;SDS011;7180;52.742;11.420;2022-08-16T07:07:32;16.08;;;14.50;;
8584;SDS011;7180;52.742;11.420;2022-08-16T07:09:57;15.90;;;14.55;;
8584;SDS011;7180;52.742;11.420;2022-08-16T07:12:23;15.25;;;14.00;;
8584;SDS011;7180;52.742;11.420;2022-08-16T07:14:48;16.17;;;14.77;;
8584;SDS011;7180;52.742;11.420;2022-08-16T07:17:14;15.93;;;14.63;;
8584;SDS011;7180;52.742;11.420;2022-08-16T07:19:40;15.13;;;13.93;;
8584;SDS011;7180;52.742;11.420;2022-08-16T07:22:05;15.80;;;14.63;;
8584;SDS011;7180;52.742;11.420;2022-08-16T07:24:30;16.92;;;15.63;;
8584;SDS011;7180;52.742;11.420;2022-08-16T07:26:57;16.70;;;15.05;;
8584;SDS011;7180;52.742;11.420;2022-08-16T07:29:23;17.13;;;15.68;;
8584;SDS011;7180;52.742;11.420;2022-08-16T07:31:49;14.23;;;13.18;;
8584;SDS011;7180;52.742;11.420;2022-08-16T07:34:15;16.73;;;15.00;;
8584;SDS011;7180;52.742;11.420;2022-08-16T07:36:40;15.63;;;14.18;;
8584;SDS011;7180;52.742;11.420;2022-08-16T07:39:05;16.02;;;14.82;;
8584;SDS011;7180;52.742;11.420;2022-08-16T07:41:32;16.60;;;15.10;;
8584;SDS011;7180;52.742;11.420;2022-08-16T07:43:59;16.67;;;15.00;;
8584;SDS011;7180;52.742;11.420;2022-08-16T07:46:25;16.38;;;15.07;;
8584;SDS011;7180;52.742;11.420;2022-08-16T07:48:50;16.13;;;14.75;;
8584;SDS011;7180;52.742;11.420;2022-08-16T07:51:16;16.70;;;15.38;;
8584;SDS011;7180;52.742;11.420;2022-08-16T07:53:41;16.23;;;14.95;;
8584;SDS011;7180;52.742;11.420;2022-08-16T07:56:08;15.80;;;14.50;;
8584;SDS011;7180;52.742;11.420;2022-08-16T07:58:33;16.73;;;15.27;;
8584;SDS011;7180;52.742;11.420;2022-08-16T08:00:59;15.68;;;14.32;;
8584;SDS011;7180;52.742;11.420;2022-08-16T08:03:25;16.27;;;14.90;;
8584;SDS011;7180;52.742;11.420;2022-08-16T08:05:51;16.35;;;14.98;;
8584;SDS011;7180;52.742;11.420;2022-08-16T08:08:17;16.13;;;14.55;;
8584;SDS011;7180;52.742;11.420;2022-08-16T08:10:42;13.75;;;12.65;;
8584;SDS011;7180;52.742;11.420;2022-08-16T08:13:07;15.80;;;14.60;;
8584;SDS011;7180;52.742;11.420;2022-08-16T08:15:33;15.32;;;13.90;;
8584;SDS011;7180;52.742;11.420;2022-08-16T08:17:58;15.25;;;14.05;;
8584;SDS011;7180;52.742;11.420;2022-08-16T08:20:26;15.82;;;14.52;;
8584;SDS011;7180;52.742;11.420;2022-08-16T08:22:52;14.85;;;13.52;;
8584;SDS011;7180;52.742;11.420;2022-08-16T08:25:19;15.50;;;14.25;;
8584;SDS011;7180;52.742;11.420;2022-08-16T08:27:45;14.18;;;13.10;;
8584;SDS011;7180;52.742;11.420;2022-08-16T08:30:11;13.32;;;12.32;;
8584;SDS011;7180;52.742;11.420;2022-08-16T08:32:37;15.43;;;14.13;;
8584;SDS011;7180;52.742;11.420;2022-08-16T08:35:03;15.27;;;13.95;;
8584;SDS011;7180;52.742;11.420;2022-08-16T08:37:30;15.30;;;14.10;;
8584;SDS011;7180;52.742;11.420;2022-08-16T08:39:56;15.15;;;14.05;;
8584;SDS011;7180;52.742;11.420;2022-08-16T08:42:22;13.07;;;12.02;;
8584;SDS011;7180;52.742;11.420;2022-08-16T08:44:47;14.38;;;13.20;;
8584;SDS011;7180;52.742;11.420;2022-08-16T08:47:12;12.98;;;12.07;;
8584;SDS011;7180;52.742;11.420;2022-08-16T08:49:37;12.88;;;11.80;;
8584;SDS011;7180;52.742;11.420;2022-08-16T08:52:03;12.00;;;11.00;;
8584;SDS011;7180;52.742;11.420;2022-08-16T08:54:29;12.88;;;11.77;;
8584;SDS011;7180;52.742;11.420;2022-08-16T08:56:56;12.82;;;11.93;;
8584;SDS011;7180;52.742;11.420;2022-08-16T08:59:22;13.45;;;12.55;;
8584;SDS011;7180;52.742;11.420;2022-08-16T09:01:48;13.05;;;11.95;;
8584;SDS011;7180;52.742;11.420;2022-08-16T09:04:14;12.63;;;11.70;;
8584;SDS011;7180;52.742;11.420;2022-08-16T09:06:39;12.60;;;11.63;;
8584;SDS011;7180;52.742;11.420;2022-08-16T09:09:06;12.10;;;11.18;;
8584;SDS011;7180;52.742;11.420;2022-08-16T09:11:33;11.60;;;10.75;;
8584;SDS011;7180;52.742;11.420;2022-08-16T09:14:00;12.52;;;11.63;;
8584;SDS011;7180;52.742;11.420;2022-08-16T09:16:26;12.20;;;11.40;;
8584;SDS011;7180;52.742;11.420;2022-08-16T09:18:51;12.15;;;11.25;;
8584;SDS011;7180;52.742;11.420;2022-08-16T09:21:16;11.48;;;10.68;;
8584;SDS011;7180;52.742;11.420;2022-08-16T09:23:42;11.80;;;10.80;;
8584;SDS011;7180;52.742;11.420;2022-08-16T09:26:09;12.43;;;11.45;;
8584;SDS011;7180;52.742;11.420;2022-08-16T09:28:36;12.15;;;11.25;;
8584;SDS011;7180;52.742;11.420;2022-08-16T09:31:02;11.52;;;10.70;;
8584;SDS011;7180;52.742;11.420;2022-08-16T09:33:28;12.38;;;11.48;;
8584;SDS011;7180;52.742;11.420;2022-08-16T09:35:54;12.15;;;11.15;;
8584;SDS011;7180;52.742;11.420;2022-08-16T09:38:19;12.05;;;11.25;;
8584;SDS011;7180;52.742;11.420;2022-08-16T09:40:46;12.70;;;11.80;;
8584;SDS011;7180;52.742;11.420;2022-08-16T09:43:12;12.15;;;11.35;;
8584;SDS011;7180;52.742;11.420;2022-08-16T09:45:39;11.80;;;10.95;;
8584;SDS011;7180;52.742;11.420;2022-08-16T09:48:07;12.13;;;11.32;;
8584;SDS011;7180;52.742;11.420;2022-08-16T09:50:35;12.63;;;11.63;;
8584;SDS011;7180;52.742;11.420;2022-08-16T09:53:01;11.85;;;11.05;;
8584;SDS011;7180;52.742;11.420;2022-08-16T09:55:28;11.32;;;10.52;;
8584;SDS011;7180;52.742;11.420;2022-08-16T09:57:54;11.50;;;10.70;;
8584;SDS011;7180;52.742;11.420;2022-08-16T10:00:19;11.75;;;10.95;;
8584;SDS011;7180;52.742;11.420;2022-08-16T10:02:45;11.25;;;10.43;;
8584;SDS011;7180;52.742;11.420;2022-08-16T10:05:11;12.95;;;11.95;;
8584;SDS011;7180;52.742;11.420;2022-08-16T10:07:36;11.90;;;10.95;;
8584;SDS011;7180;52.742;11.420;2022-08-16T10:10:02;13.43;;;12.38;;
8584;SDS011;7180;52.742;11.420;2022-08-16T10:12:28;13.25;;;12.35;;
8584;SDS011;7180;52.742;11.420;2022-08-16T10:15:14;13.80;;;12.90;;
8584;SDS011;7180;52.742;11.420;2022-08-16T10:17:45;13.15;;;12.13;;
8584;SDS011;7180;52.742;11.420;2022-08-16T10:20:11;12.02;;;11.23;;
8584;SDS011;7180;52.742;11.420;2022-08-16T10:22:37;12.38;;;11.48;;
8584;SDS011;7180;52.742;11.420;2022-08-16T10:25:03;11.48;;;10.73;;
8584;SDS011;7180;52.742;11.420;2022-08-16T10:27:30;9.73;;;9.02;;
8584;SDS011;7180;52.742;11.420;2022-08-16T10:29:56;10.27;;;9.68;;
8584;SDS011;7180;52.742;11.420;2022-08-16T10:32:21;9.40;;;8.80;;
8584;SDS011;7180;52.742;11.420;2022-08-16T10:34:47;9.80;;;9.10;;
8584;SDS011;7180;52.742;11.420;2022-08-16T10:37:12;10.43;;;9.65;;
8584;SDS011;7180;52.742;11.420;2022-08-16T10:39:37;11.05;;;10.20;;
8584;SDS011;7180;52.742;11.420;2022-08-16T10:42:04;11.20;;;10.40;;
8584;SDS011;7180;52.742;11.420;2022-08-16T10:44:30;11.13;;;10.43;;
8584;SDS011;7180;52.742;11.420;2022-08-16T10:46:55;10.30;;;9.55;;
8584;SDS011;7180;52.742;11.420;2022-08-16T10:49:20;9.80;;;9.20;;
8584;SDS011;7180;52.742;11.420;2022-08-16T10:51:46;9.93;;;9.13;;
8584;SDS011;7180;52.742;11.420;2022-08-16T10:54:11;9.63;;;9.02;;
8584;SDS011;7180;52.742;11.420;2022-08-16T10:56:36;9.90;;;9.30;;
8584;SDS011;7180;52.742;11.420;2022-08-16T10:59:01;9.30;;;8.70;;
8584;SDS011;7180;52.742;11.420;2022-08-16T11:01:27;9.35;;;8.80;;
8584;SDS011;7180;52.742;11.420;2022-08-16T11:03:52;9.70;;;8.98;;
8584;SDS011;7180;52.742;11.420;2022-08-16T11:06:19;9.23;;;8.45;;
8584;SDS011;7180;52.742;11.420;2022-08-16T11:08:45;8.65;;;8.05;;
8584;SDS011;7180;52.742;11.420;2022-08-16T11:11:11;9.50;;;8.90;;
8584;SDS011;7180;52.742;11.420;2022-08-16T11:13:38;9.50;;;8.90;;
8584;SDS011;7180;52.742;11.420;2022-08-16T11:16:04;9.57;;;8.98;;
8584;SDS011;7180;52.742;11.420;2022-08-16T11:18:30;9.07;;;8.57;;
8584;SDS011;7180;52.742;11.420;2022-08-16T11:20:56;9.18;;;8.48;;
8584;SDS011;7180;52.742;11.420;2022-08-16T11:23:22;9.27;;;8.60;;
8584;SDS011;7180;52.742;11.420;2022-08-16T11:25:49;8.80;;;8.30;;
8584;SDS011;7180;52.742;11.420;2022-08-16T11:28:15;8.82;;;8.32;;
8584;SDS011;7180;52.742;11.420;2022-08-16T11:30:40;8.75;;;8.25;;
8584;SDS011;7180;52.742;11.420;2022-08-16T11:33:07;8.90;;;8.35;;
8584;SDS011;7180;52.742;11.420;2022-08-16T11:35:33;8.40;;;7.90;;
8584;SDS011;7180;52.742;11.420;2022-08-16T11:38:03;9.07;;;8.40;;
8584;SDS011;7180;52.742;11.420;2022-08-16T11:40:39;9.05;;;8.35;;
8584;SDS011;7180;52.742;11.420;2022-08-16T11:43:11;9.25;;;8.65;;
8584;SDS011;7180;52.742;11.420;2022-08-16T11:45:38;9.23;;;8.57;;
8584;SDS011;7180;52.742;11.420;2022-08-16T11:48:04;9.23;;;8.52;;
8584;SDS011;7180;52.742;11.420;2022-08-16T11:50:30;9.05;;;8.35;;
8584;SDS011;7180;52.742;11.420;2022-08-16T11:52:57;8.63;;;8.02;;
8584;SDS011;7180;52.742;11.420;2022-08-16T11:55:23;8.77;;;8.27;;
8584;SDS011;7180;52.742;11.420;2022-08-16T11:57:48;9.13;;;8.52;;
8584;SDS011;7180;52.742;11.420;2022-08-16T12:00:14;9.18;;;8.57;;
8584;SDS011;7180;52.742;11.420;2022-08-16T12:02:41;9.38;;;8.77;;
8584;SDS011;7180;52.742;11.420;2022-08-16T12:05:07;8.80;;;8.25;;
8584;SDS011;7180;52.742;11.420;2022-08-16T12:07:35;8.95;;;8.45;;
8584;SDS011;7180;52.742;11.420;2022-08-16T12:10:01;8.85;;;8.25;;
8584;SDS011;7180;52.742;11.420;2022-08-16T12:12:29;9.18;;;8.60;;
8584;SDS011;7180;52.742;11.420;2022-08-16T12:14:54;9.48;;;8.77;;
8584;SDS011;7180;52.742;11.420;2022-08-16T12:17:20;9.13;;;8.43;;
8584;SDS011;7180;52.742;11.420;2022-08-16T12:19:46;9.10;;;8.60;;
8584;SDS011;7180;52.742;11.420;2022-08-16T12:22:12;9.40;;;8.80;;
8584;SDS011;7180;52.742;11.420;2022-08-16T12:24:38;9.10;;;8.50;;
8584;SDS011;7180;52.742;11.420;2022-08-16T12:27:04;8.90;;;8.30;;
8584;SDS011;7180;52.742;11.420;2022-08-16T12:29:29;8.63;;;8.13;;
8584;SDS011;7180;52.742;11.420;2022-08-16T12:31:55;8.82;;;8.23;;
8584;SDS011;7180;52.742;11.420;2022-08-16T12:34:20;8.70;;;8.13;;
8584;SDS011;7180;52.742;11.420;2022-08-16T12:36:46;9.55;;;8.65;;
8584;SDS011;7180;52.742;11.420;2022-08-16T12:39:11;8.70;;;7.93;;
8584;SDS011;7180;52.742;11.420;2022-08-16T12:41:37;8.38;;;7.85;;
8584;SDS011;7180;52.742;11.420;2022-08-16T12:44:04;8.82;;;8.32;;
8584;SDS011;7180;52.742;11.420;2022-08-16T12:46:29;8.13;;;7.68;;
8584;SDS011;7180;52.742;11.420;2022-08-16T12:48:55;8.82;;;8.23;;
8584;SDS011;7180;52.742;11.420;2022-08-16T12:51:30;8.80;;;8.20;;
8584;SDS011;7180;52.742;11.420;2022-08-16T12:54:01;9.15;;;8.52;;
8584;SDS011;7180;52.742;11.420;2022-08-16T12:56:29;8.90;;;8.30;;
8584;SDS011;7180;52.742;11.420;2022-08-16T12:58:58;8.80;;;8.30;;
8584;SDS011;7180;52.742;11.420;2022-08-16T13:01:26;9.05;;;8.35;;
8584;SDS011;7180;52.742;11.420;2022-08-16T13:03:55;8.43;;;7.93;;
8584;SDS011;7180;52.742;11.420;2022-08-16T13:06:22;8.13;;;7.63;;
8584;SDS011;7180;52.742;11.420;2022-08-16T13:08:49;8.38;;;7.80;;
8584;SDS011;7180;52.742;11.420;2022-08-16T13:11:15;8.18;;;7.57;;
8584;SDS011;7180;52.742;11.420;2022-08-16T13:13:45;7.57;;;7.18;;
8584;SDS011;7180;52.742;11.420;2022-08-16T13:16:10;8.50;;;7.78;;
8584;SDS011;7180;52.742;11.420;2022-08-16T13:18:35;8.90;;;8.15;;
8584;SDS011;7180;52.742;11.420;2022-08-16T13:21:02;8.70;;;8.20;;
8584;SDS011;7180;52.742;11.420;2022-08-16T13:23:29;8.88;;;8.27;;
8584;SDS011;7180;52.742;11.420;2022-08-16T13:25:54;8.27;;;7.60;;
8584;SDS011;7180;52.742;11.420;2022-08-16T13:28:21;8.30;;;7.70;;
8584;SDS011;7180;52.742;11.420;2022-08-16T13:30:52;8.60;;;7.93;;
8584;SDS011;7180;52.742;11.420;2022-08-16T13:33:24;8.52;;;7.93;;
8584;SDS011;7180;52.742;11.420;2022-08-16T13:35:54;9.18;;;8.57;;
8584;SDS011;7180;52.742;11.420;2022-08-16T13:38:20;8.18;;;7.68;;
8584;SDS011;7180;52.742;11.420;2022-08-16T13:40:46;8.48;;;7.97;;
8584;SDS011;7180;52.742;11.420;2022-08-16T13:43:12;8.32;;;7.82;;
8584;SDS011;7180;52.742;11.420;2022-08-16T13:45:38;8.75;;;8.13;;
8584;SDS011;7180;52.742;11.420;2022-08-16T13:48:03;9.27;;;8.68;;
8584;SDS011;7180;52.742;11.420;2022-08-16T13:50:29;8.65;;;8.15;;
8584;SDS011;7180;52.742;11.420;2022-08-16T13:52:55;8.25;;;7.75;;
8584;SDS011;7180;52.742;11.420;2022-08-16T13:55:21;8.45;;;7.95;;
8584;SDS011;7180;52.742;11.420;2022-08-16T13:57:47;7.78;;;7.35;;
8584;SDS011;7180;52.742;11.420;2022-08-16T14:00:12;8.90;;;8.38;;
8584;SDS011;7180;52.742;11.420;2022-08-16T14:02:39;7.78;;;7.32;;
8584;SDS011;7180;52.742;11.420;2022-08-16T14:05:04;7.93;;;7.40;;
8584;SDS011;7180;52.742;11.420;2022-08-16T14:07:31;8.38;;;7.75;;
8584;SDS011;7180;52.742;11.420;2022-08-16T14:09:56;8.27;;;7.57;;
8584;SDS011;7180;52.742;11.420;2022-08-16T14:12:23;7.72;;;7.32;;
8584;SDS011;7180;52.742;11.420;2022-08-16T14:14:50;7.97;;;7.47;;
8584;SDS011;7180;52.742;11.420;2022-08-16T14:17:16;8.20;;;7.70;;
8584;SDS011;7180;52.742;11.420;2022-08-16T14:19:43;8.77;;;8.05;;
8584;SDS011;7180;52.742;11.420;2022-08-16T14:22:08;8.43;;;7.75;;
8584;SDS011;7180;52.742;11.420;2022-08-16T14:24:34;8.07;;;7.55;;
8584;SDS011;7180;52.742;11.420;2022-08-16T14:27:00;7.35;;;6.95;;
8584;SDS011;7180;52.742;11.420;2022-08-16T14:29:25;7.28;;;6.82;;
8584;SDS011;7180;52.742;11.420;2022-08-16T14:31:51;8.05;;;7.55;;
8584;SDS011;7180;52.742;11.420;2022-08-16T14:34:16;7.97;;;7.25;;
8584;SDS011;7180;52.742;11.420;2022-08-16T14:36:42;7.60;;;7.10;;
8584;SDS011;7180;52.742;11.420;2022-08-16T14:39:07;8.70;;;8.05;;
8584;SDS011;7180;52.742;11.420;2022-08-16T14:41:32;7.60;;;7.20;;
8584;SDS011;7180;52.742;11.420;2022-08-16T14:43:57;8.02;;;7.53;;
8584;SDS011;7180;52.742;11.420;2022-08-16T14:46:23;8.40;;;7.90;;
8584;SDS011;7180;52.742;11.420;2022-08-16T14:48:48;7.72;;;7.30;;
8584;SDS011;7180;52.742;11.420;2022-08-16T14:51:13;8.02;;;7.43;;
8584;SDS011;7180;52.742;11.420;2022-08-16T14:53:39;7.50;;;7.07;;
8584;SDS011;7180;52.742;11.420;2022-08-16T14:56:05;8.00;;;7.50;;
8584;SDS011;7180;52.742;11.420;2022-08-16T14:58:31;7.82;;;7.15;;
8584;SDS011;7180;52.742;11.420;2022-08-16T15:00:56;7.57;;;7.13;;
8584;SDS011;7180;52.742;11.420;2022-08-16T15:03:25;8.15;;;7.50;;
8584;SDS011;7180;52.742;11.420;2022-08-16T15:05:50;7.43;;;6.93;;
8584;SDS011;7180;52.742;11.420;2022-08-16T15:08:15;8.10;;;7.55;;
8584;SDS011;7180;52.742;11.420;2022-08-16T15:10:41;7.70;;;7.20;;
8584;SDS011;7180;52.742;11.420;2022-08-16T15:13:08;7.60;;;7.15;;
8584;SDS011;7180;52.742;11.420;2022-08-16T15:15:33;8.27;;;7.78;;
8584;SDS011;7180;52.742;11.420;2022-08-16T15:17:59;8.82;;;8.32;;
8584;SDS011;7180;52.742;11.420;2022-08-16T15:20:27;8.57;;;8.07;;
8584;SDS011;7180;52.742;11.420;2022-08-16T15:22:53;8.23;;;7.72;;
8584;SDS011;7180;52.742;11.420;2022-08-16T15:25:21;7.75;;;7.20;;
8584;SDS011;7180;52.742;11.420;2022-08-16T15:27:48;8.50;;;8.00;;
8584;SDS011;7180;52.742;11.420;2022-08-16T15:30:16;7.95;;;7.30;;
8584;SDS011;7180;52.742;11.420;2022-08-16T15:32:43;8.15;;;7.50;;
8584;SDS011;7180;52.742;11.420;2022-08-16T15:35:10;7.65;;;7.15;;
8584;SDS011;7180;52.742;11.420;2022-08-16T15:37:36;8.65;;;8.02;;
8584;SDS011;7180;52.742;11.420;2022-08-16T15:40:04;8.25;;;7.65;;
8584;SDS011;7180;52.742;11.420;2022-08-16T15:42:31;7.60;;;7.10;;
8584;SDS011;7180;52.742;11.420;2022-08-16T15:44:58;7.68;;;7.18;;
8584;SDS011;7180;52.742;11.420;2022-08-16T15:47:25;7.63;;;7.10;;
8584;SDS011;7180;52.742;11.420;2022-08-16T15:49:51;8.20;;;7.68;;
8584;SDS011;7180;52.742;11.420;2022-08-16T15:52:19;8.15;;;7.55;;
8584;SDS011;7180;52.742;11.420;2022-08-16T15:54:49;7.22;;;6.82;;
8584;SDS011;7180;52.742;11.420;2022-08-16T15:57:15;8.38;;;7.88;;
8584;SDS011;7180;52.742;11.420;2022-08-16T15:59:40;7.70;;;7.25;;
8584;SDS011;7180;52.742;11.420;2022-08-16T16:02:06;8.32;;;7.82;;
8584;SDS011;7180;52.742;11.420;2022-08-16T16:04:32;7.70;;;7.30;;
8584;SDS011;7180;52.742;11.420;2022-08-16T16:06:58;7.78;;;7.20;;
8584;SDS011;7180;52.742;11.420;2022-08-16T16:09:23;8.05;;;7.28;;
8584;SDS011;7180;52.742;11.420;2022-08-16T16:11:49;7.75;;;7.35;;
8584;SDS011;7180;52.742;11.420;2022-08-16T16:14:15;8.40;;;7.90;;
8584;SDS011;7180;52.742;11.420;2022-08-16T16:16:41;7.80;;;7.40;;
8584;SDS011;7180;52.742;11.420;2022-08-16T16:19:09;8.15;;;7.65;;
8584;SDS011;7180;52.742;11.420;2022-08-16T16:21:35;8.57;;;8.00;;
8584;SDS011;7180;52.742;11.420;2022-08-16T16:24:00;9.00;;;8.30;;
8584;SDS011;7180;52.742;11.420;2022-08-16T16:26:26;8.75;;;8.15;;
8584;SDS011;7180;52.742;11.420;2022-08-16T16:28:52;8.40;;;7.70;;
8584;SDS011;7180;52.742;11.420;2022-08-16T16:31:18;7.65;;;7.25;;
8584;SDS011;7180;52.742;11.420;2022-08-16T16:33:44;8.55;;;8.00;;
8584;SDS011;7180;52.742;11.420;2022-08-16T16:36:13;8.65;;;8.13;;
8584;SDS011;7180;52.742;11.420;2022-08-16T16:38:40;8.52;;;8.02;;
8584;SDS011;7180;52.742;11.420;2022-08-16T16:41:09;8.15;;;7.47;;
8584;SDS011;7180;52.742;11.420;2022-08-16T16:43:35;7.32;;;6.93;;
8584;SDS011;7180;52.742;11.420;2022-08-16T16:46:03;7.47;;;6.97;;
8584;SDS011;7180;52.742;11.420;2022-08-16T16:48:30;7.60;;;7.20;;
8584;SDS011;7180;52.742;11.420;2022-08-16T16:50:57;7.90;;;7.30;;
8584;SDS011;7180;52.742;11.420;2022-08-16T16:53:22;8.85;;;8.15;;
8584;SDS011;7180;52.742;11.420;2022-08-16T16:55:48;8.63;;;8.02;;
8584;SDS011;7180;52.742;11.420;2022-08-16T16:58:15;7.95;;;7.55;;
8584;SDS011;7180;52.742;11.420;2022-08-16T17:01:00;9.02;;;8.35;;
8584;SDS011;7180;52.742;11.420;2022-08-16T17:03:25;8.57;;;7.97;;
8584;SDS011;7180;52.742;11.420;2022-08-16T17:05:51;8.30;;;7.80;;
8584;SDS011;7180;52.742;11.420;2022-08-16T17:08:17;8.40;;;7.90;;
8584;SDS011;7180;52.742;11.420;2022-08-16T17:10:43;8.90;;;8.10;;
8584;SDS011;7180;52.742;11.420;2022-08-16T17:13:09;9.25;;;8.57;;
8584;SDS011;7180;52.742;11.420;2022-08-16T17:15:34;9.27;;;8.57;;
8584;SDS011;7180;52.742;11.420;2022-08-16T17:18:00;9.40;;;8.77;;
8584;SDS011;7180;52.742;11.420;2022-08-16T17:20:26;9.38;;;8.77;;
8584;SDS011;7180;52.742;11.420;2022-08-16T17:22:52;9.13;;;8.63;;
8584;SDS011;7180;52.742;11.420;2022-08-16T17:25:20;9.93;;;9.32;;
8584;SDS011;7180;52.742;11.420;2022-08-16T17:27:47;9.27;;;8.68;;
8584;SDS011;7180;52.742;11.420;2022-08-16T17:30:16;9.80;;;8.90;;
8584;SDS011;7180;52.742;11.420;2022-08-16T17:32:45;8.88;;;8.27;;
8584;SDS011;7180;52.742;11.420;2022-08-16T17:35:15;9.45;;;8.75;;
8584;SDS011;7180;52.742;11.420;2022-08-16T17:37:42;9.07;;;8.48;;
8584;SDS011;7180;52.742;11.420;2022-08-16T17:40:08;9.05;;;8.45;;
8584;SDS011;7180;52.742;11.420;2022-08-16T17:42:37;9.32;;;8.70;;
8584;SDS011;7180;52.742;11.420;2022-08-16T17:45:02;8.75;;;8.27;;
8584;SDS011;7180;52.742;11.420;2022-08-16T17:47:27;9.05;;;8.35;;
8584;SDS011;7180;52.742;11.420;2022-08-16T17:49:53;8.82;;;8.32;;
8584;SDS011;7180;52.742;11.420;2022-08-16T17:52:18;8.70;;;8.15;;
8584;SDS011;7180;52.742;11.420;2022-08-16T17:54:43;8.57;;;8.07;;
8584;SDS011;7180;52.742;11.420;2022-08-16T17:57:08;9.05;;;8.40;;
8584;SDS011;7180;52.742;11.420;2022-08-16T17:59:34;8.32;;;7.82;;
8584;SDS011;7180;52.742;11.420;2022-08-16T18:02:01;8.55;;;7.95;;
8584;SDS011;7180;52.742;11.420;2022-08-16T18:04:27;9.27;;;8.63;;
8584;SDS011;7180;52.742;11.420;2022-08-16T18:06:52;9.32;;;8.73;;
8584;SDS011;7180;52.742;11.420;2022-08-16T18:09:19;9.07;;;8.20;;
8584;SDS011;7180;52.742;11.420;2022-08-16T18:11:45;8.60;;;8.10;;
8584;SDS011;7180;52.742;11.420;2022-08-16T18:14:11;9.57;;;8.88;;
8584;SDS011;7180;52.742;11.420;2022-08-16T18:16:37;8.70;;;8.15;;
8584;SDS011;7180;52.742;11.420;2022-08-16T18:19:04;9.73;;;8.90;;
8584;SDS011;7180;52.742;11.420;2022-08-16T18:21:29;9.30;;;8.60;;
8584;SDS011;7180;52.742;11.420;2022-08-16T18:24:13;9.23;;;8.63;;
8584;SDS011;7180;52.742;11.420;2022-08-16T18:26:39;9.35;;;8.65;;
8584;SDS011;7180;52.742;11.420;2022-08-16T18:29:05;10.00;;;9.30;;
8584;SDS011;7180;52.742;11.420;2022-08-16T18:31:31;9.18;;;8.55;;
8584;SDS011;7180;52.742;11.420;2022-08-16T18:33:57;9.32;;;8.63;;
8584;SDS011;7180;52.742;11.420;2022-08-16T18:36:23;10.10;;;9.30;;
8584;SDS011;7180;52.742;11.420;2022-08-16T18:38:49;9.93;;;9.20;;
8584;SDS011;7180;52.742;11.420;2022-08-16T18:41:14;10.13;;;9.32;;
8584;SDS011;7180;52.742;11.420;2022-08-16T18:43:40;9.85;;;9.05;;
8584;SDS011;7180;52.742;11.420;2022-08-16T18:46:05;9.25;;;8.68;;
8584;SDS011;7180;52.742;11.420;2022-08-16T18:48:31;9.57;;;8.77;;
8584;SDS011;7180;52.742;11.420;2022-08-16T18:50:56;9.35;;;8.75;;
8584;SDS011;7180;52.742;11.420;2022-08-16T18:53:22;9.90;;;9.10;;
8584;SDS011;7180;52.742;11.420;2022-08-16T18:55:51;9.43;;;8.73;;
8584;SDS011;7180;52.742;11.420;2022-08-16T18:58:18;10.15;;;9.20;;
8584;SDS011;7180;52.742;11.420;2022-08-16T19:00:44;9.85;;;9.15;;
8584;SDS011;7180;52.742;11.420;2022-08-16T19:03:15;10.75;;;9.70;;
8584;SDS011;7180;52.742;11.420;2022-08-16T19:05:44;9.70;;;8.80;;
8584;SDS011;7180;52.742;11.420;2022-08-16T19:08:12;9.57;;;8.88;;
8584;SDS011;7180;52.742;11.420;2022-08-16T19:10:38;10.23;;;9.45;;
8584;SDS011;7180;52.742;11.420;2022-08-16T19:13:06;9.63;;;8.93;;
8584;SDS011;7180;52.742;11.420;2022-08-16T19:15:33;10.03;;;9.23;;
8584;SDS011;7180;52.742;11.420;2022-08-16T19:17:58;10.27;;;9.47;;
8584;SDS011;7180;52.742;11.420;2022-08-16T19:20:25;10.07;;;9.23;;
8584;SDS011;7180;52.742;11.420;2022-08-16T19:22:51;9.30;;;8.63;;
8584;SDS011;7180;52.742;11.420;2022-08-16T19:25:18;10.40;;;9.43;;
8584;SDS011;7180;52.742;11.420;2022-08-16T19:27:44;9.93;;;9.30;;
8584;SDS011;7180;52.742;11.420;2022-08-16T19:30:10;10.10;;;9.30;;
8584;SDS011;7180;52.742;11.420;2022-08-16T19:32:35;10.67;;;9.80;;
8584;SDS011;7180;52.742;11.420;2022-08-16T19:35:05;9.90;;;9.27;;
8584;SDS011;7180;52.742;11.420;2022-08-16T19:37:31;10.07;;;9.37;;
8584;SDS011;7180;52.742;11.420;2022-08-16T19:39:57;9.87;;;9.17;;
8584;SDS011;7180;52.742;11.420;2022-08-16T19:42:23;9.87;;;9.17;;
8584;SDS011;7180;52.742;11.420;2022-08-16T19:44:51;10.33;;;9.53;;
8584;SDS011;7180;52.742;11.420;2022-08-16T19:47:18;9.70;;;8.80;;
8584;SDS011;7180;52.742;11.420;2022-08-16T19:49:44;9.70;;;9.10;;
8584;SDS011;7180;52.742;11.420;2022-08-16T19:54:43;10.00;;;9.20;;
8584;SDS011;7180;52.742;11.420;2022-08-16T19:57:09;10.07;;;9.23;;
8584;SDS011;7180;52.742;11.420;2022-08-16T19:59:35;10.07;;;9.30;;
8584;SDS011;7180;52.742;11.420;2022-08-16T20:02:02;10.47;;;9.50;;
8584;SDS011;7180;52.742;11.420;2022-08-16T20:04:30;10.20;;;9.40;;
8584;SDS011;7180;52.742;11.420;2022-08-16T20:06:55;11.50;;;10.47;;
8584;SDS011;7180;52.742;11.420;2022-08-16T20:09:21;10.80;;;10.00;;
8584;SDS011;7180;52.742;11.420;2022-08-16T20:11:47;10.13;;;9.43;;
8584;SDS011;7180;52.742;11.420;2022-08-16T20:14:13;10.40;;;9.80;;